sensor_id;sensor_type;location;lat;lon;timestamp;P1;P2;P0
43280;PMS5003;62175;49.416;8.690;2022-11-13T00:01:52;30;27;
43280;PMS5003;62175;49.416;8.690;2022-11-13T00:04:20;23;21;
43280;PMS5003;62175;49.416;8.690;2022-11-13T00:06:47;25;22;
43280;PMS5003;62175;49.416;8.690;2022-11-13T00:09:14;20;20;
43280;PMS5003;62175;49.416;8.690;2022-11-13T00:11:41;23;22;
43280;PMS5003;62175;49.416;8.690;2022-11-13T00:14:09;27;24;
43280;PMS5003;62175;49.416;8.690;2022-11-13T00:16:36;19;19;
43280;PMS5003;62175;49.416;8.690;2022-11-13T00:19:03;20;19;
43280;PMS5003;62175;49.416;8.690;2022-11-13T00:21:30;21;21;
43280;PMS5003;62175;49.416;8.690;2022-11-13T00:23:58;23;21;
43280;PMS5003;62175;49.416;8.690;2022-11-13T00:26:25;21;19;
43280;PMS5003;62175;49.416;8.690;2022-11-13T00:28:55;21;19;
43280;PMS5003;62175;49.416;8.690;2022-11-13T00:31:23;19;18;
43280;PMS5003;62175;49.416;8.690;2022-11-13T00:33:52;25;24;
43280;PMS5003;62175;49.416;8.690;2022-11-13T00:36:20;22;20;
43280;PMS5003;62175;49.416;8.690;2022-11-13T00:38:49;28;25;
43280;PMS5003;62175;49.416;8.690;2022-11-13T00:41:17;25;23;
43280;PMS5003;62175;49.416;8.690;2022-11-13T00:43:44;18;18;
43280;PMS5003;62175;49.416;8.690;2022-11-13T00:46:10;20;19;
43280;PMS5003;62175;49.416;8.690;2022-11-13T00:48:37;24;23;
43280;PMS5003;62175;49.416;8.690;2022-11-13T00:51:05;27;24;
43280;PMS5003;62175;49.416;8.690;2022-11-13T00:53:33;29;28;
43280;PMS5003;62175;49.416;8.690;2022-11-13T00:56:00;24;23;
43280;PMS5003;62175;49.416;8.690;2022-11-13T00:58:27;23;19;
43280;PMS5003;62175;49.416;8.690;2022-11-13T01:00:54;23;22;
43280;PMS5003;62175;49.416;8.690;2022-11-13T01:03:28;20;18;
43280;PMS5003;62175;49.416;8.690;2022-11-13T01:05:56;24;24;
43280;PMS5003;62175;49.416;8.690;2022-11-13T01:08:23;21;20;
43280;PMS5003;62175;49.416;8.690;2022-11-13T01:10:50;22;19;
43280;PMS5003;62175;49.416;8.690;2022-11-13T01:13:17;27;24;
43280;PMS5003;62175;49.416;8.690;2022-11-13T01:15:45;18;17;
43280;PMS5003;62175;49.416;8.690;2022-11-13T01:18:12;20;18;
43280;PMS5003;62175;49.416;8.690;2022-11-13T01:20:39;22;18;
43280;PMS5003;62175;49.416;8.690;2022-11-13T01:23:07;20;19;
43280;PMS5003;62175;49.416;8.690;2022-11-13T01:25:34;21;20;
43280;PMS5003;62175;49.416;8.690;2022-11-13T01:28:01;23;20;
43280;PMS5003;62175;49.416;8.690;2022-11-13T01:30:29;19;18;
43280;PMS5003;62175;49.416;8.690;2022-11-13T01:32:56;20;18;
43280;PMS5003;62175;49.416;8.690;2022-11-13T01:35:23;24;23;
43280;PMS5003;62175;49.416;8.690;2022-11-13T01:37:51;22;20;
43280;PMS5003;62175;49.416;8.690;2022-11-13T01:40:18;16;16;
43280;PMS5003;62175;49.416;8.690;2022-11-13T01:42:45;16;16;
43280;PMS5003;62175;49.416;8.690;2022-11-13T01:46:19;17;16;
43280;PMS5003;62175;49.416;8.690;2022-11-13T01:48:51;17;15;
43280;PMS5003;62175;49.416;8.690;2022-11-13T01:51:25;20;17;
43280;PMS5003;62175;49.416;8.690;2022-11-13T01:53:54;19;16;
43280;PMS5003;62175;49.416;8.690;2022-11-13T01:56:23;14;13;
43280;PMS5003;62175;49.416;8.690;2022-11-13T01:58:53;17;16;
43280;PMS5003;62175;49.416;8.690;2022-11-13T02:01:23;22;17;
43280;PMS5003;62175;49.416;8.690;2022-11-13T02:03:51;16;15;
43280;PMS5003;62175;49.416;8.690;2022-11-13T02:06:19;22;18;
43280;PMS5003;62175;49.416;8.690;2022-11-13T02:08:46;20;18;
43280;PMS5003;62175;49.416;8.690;2022-11-13T02:11:15;22;21;
43280;PMS5003;62175;49.416;8.690;2022-11-13T02:13:43;20;18;
43280;PMS5003;62175;49.416;8.690;2022-11-13T02:16:10;21;20;
43280;PMS5003;62175;49.416;8.690;2022-11-13T02:18:38;19;19;
43280;PMS5003;62175;49.416;8.690;2022-11-13T02:21:10;23;17;
43280;PMS5003;62175;49.416;8.690;2022-11-13T02:23:48;21;20;
43280;PMS5003;62175;49.416;8.690;2022-11-13T02:26:21;22;19;
43280;PMS5003;62175;49.416;8.690;2022-11-13T02:28:52;17;16;
43280;PMS5003;62175;49.416;8.690;2022-11-13T02:31:19;21;19;
43280;PMS5003;62175;49.416;8.690;2022-11-13T02:33:46;20;20;
43280;PMS5003;62175;49.416;8.690;2022-11-13T02:36:15;23;22;
43280;PMS5003;62175;49.416;8.690;2022-11-13T02:38:45;23;21;
43280;PMS5003;62175;49.416;8.690;2022-11-13T02:41:13;16;15;
43280;PMS5003;62175;49.416;8.690;2022-11-13T02:43:42;16;16;
43280;PMS5003;62175;49.416;8.690;2022-11-13T02:46:09;19;19;
43280;PMS5003;62175;49.416;8.690;2022-11-13T02:48:36;25;23;
43280;PMS5003;62175;49.416;8.690;2022-11-13T02:51:03;20;17;
43280;PMS5003;62175;49.416;8.690;2022-11-13T02:53:31;18;17;
43280;PMS5003;62175;49.416;8.690;2022-11-13T02:56:00;25;21;
43280;PMS5003;62175;49.416;8.690;2022-11-13T02:58:27;26;24;
43280;PMS5003;62175;49.416;8.690;2022-11-13T03:00:54;21;21;
43280;PMS5003;62175;49.416;8.690;2022-11-13T03:03:22;20;19;
43280;PMS5003;62175;49.416;8.690;2022-11-13T03:05:49;23;19;
43280;PMS5003;62175;49.416;8.690;2022-11-13T03:08:16;20;17;
43280;PMS5003;62175;49.416;8.690;2022-11-13T03:10:44;16;15;
43280;PMS5003;62175;49.416;8.690;2022-11-13T03:13:11;22;20;
43280;PMS5003;62175;49.416;8.690;2022-11-13T03:15:38;21;21;
43280;PMS5003;62175;49.416;8.690;2022-11-13T03:18:06;22;20;
43280;PMS5003;62175;49.416;8.690;2022-11-13T03:20:35;20;17;
43280;PMS5003;62175;49.416;8.690;2022-11-13T03:23:03;23;21;
43280;PMS5003;62175;49.416;8.690;2022-11-13T03:25:30;19;17;
43280;PMS5003;62175;49.416;8.690;2022-11-13T03:27:59;24;19;
43280;PMS5003;62175;49.416;8.690;2022-11-13T03:30:27;22;20;
43280;PMS5003;62175;49.416;8.690;2022-11-13T03:32:54;19;17;
43280;PMS5003;62175;49.416;8.690;2022-11-13T03:35:22;18;17;
43280;PMS5003;62175;49.416;8.690;2022-11-13T03:37:50;18;16;
43280;PMS5003;62175;49.416;8.690;2022-11-13T03:40:17;18;17;
43280;PMS5003;62175;49.416;8.690;2022-11-13T03:42:44;20;16;
43280;PMS5003;62175;49.416;8.690;2022-11-13T03:45:11;16;15;
43280;PMS5003;62175;49.416;8.690;2022-11-13T03:47:38;14;14;
43280;PMS5003;62175;49.416;8.690;2022-11-13T03:50:06;17;17;
43280;PMS5003;62175;49.416;8.690;2022-11-13T03:52:33;18;18;
43280;PMS5003;62175;49.416;8.690;2022-11-13T03:55:00;15;15;
43280;PMS5003;62175;49.416;8.690;2022-11-13T03:57:27;17;16;
43280;PMS5003;62175;49.416;8.690;2022-11-13T03:59:54;17;15;
43280;PMS5003;62175;49.416;8.690;2022-11-13T04:02:22;19;18;
43280;PMS5003;62175;49.416;8.690;2022-11-13T04:04:49;16;15;
43280;PMS5003;62175;49.416;8.690;2022-11-13T04:07:17;14;14;
43280;PMS5003;62175;49.416;8.690;2022-11-13T04:09:44;17;14;
43280;PMS5003;62175;49.416;8.690;2022-11-13T04:12:11;15;15;
43280;PMS5003;62175;49.416;8.690;2022-11-13T04:14:39;13;12;
43280;PMS5003;62175;49.416;8.690;2022-11-13T04:17:10;18;17;
43280;PMS5003;62175;49.416;8.690;2022-11-13T04:19:45;17;16;
43280;PMS5003;62175;49.416;8.690;2022-11-13T04:22:12;16;16;
43280;PMS5003;62175;49.416;8.690;2022-11-13T04:24:40;16;14;
43280;PMS5003;62175;49.416;8.690;2022-11-13T04:27:07;21;17;
43280;PMS5003;62175;49.416;8.690;2022-11-13T04:29:34;15;15;
43280;PMS5003;62175;49.416;8.690;2022-11-13T04:32:01;17;15;
43280;PMS5003;62175;49.416;8.690;2022-11-13T04:34:28;16;15;
43280;PMS5003;62175;49.416;8.690;2022-11-13T04:36:56;17;16;
43280;PMS5003;62175;49.416;8.690;2022-11-13T04:39:23;16;14;
43280;PMS5003;62175;49.416;8.690;2022-11-13T04:41:51;16;15;
43280;PMS5003;62175;49.416;8.690;2022-11-13T04:44:19;17;17;
43280;PMS5003;62175;49.416;8.690;2022-11-13T04:46:46;18;17;
43280;PMS5003;62175;49.416;8.690;2022-11-13T04:49:13;17;15;
43280;PMS5003;62175;49.416;8.690;2022-11-13T04:51:40;18;15;
43280;PMS5003;62175;49.416;8.690;2022-11-13T04:54:08;19;17;
43280;PMS5003;62175;49.416;8.690;2022-11-13T04:56:35;15;14;
43280;PMS5003;62175;49.416;8.690;2022-11-13T04:59:02;13;12;
43280;PMS5003;62175;49.416;8.690;2022-11-13T05:01:30;16;15;
43280;PMS5003;62175;49.416;8.690;2022-11-13T05:03:57;15;13;
43280;PMS5003;62175;49.416;8.690;2022-11-13T05:06:25;13;13;
43280;PMS5003;62175;49.416;8.690;2022-11-13T05:08:52;17;13;
43280;PMS5003;62175;49.416;8.690;2022-11-13T05:11:20;18;17;
43280;PMS5003;62175;49.416;8.690;2022-11-13T05:13:47;13;12;
43280;PMS5003;62175;49.416;8.690;2022-11-13T05:16:14;15;13;
43280;PMS5003;62175;49.416;8.690;2022-11-13T05:18:41;15;14;
43280;PMS5003;62175;49.416;8.690;2022-11-13T05:21:09;15;14;
43280;PMS5003;62175;49.416;8.690;2022-11-13T05:23:36;13;12;
43280;PMS5003;62175;49.416;8.690;2022-11-13T05:26:04;14;13;
43280;PMS5003;62175;49.416;8.690;2022-11-13T05:28:33;12;12;
43280;PMS5003;62175;49.416;8.690;2022-11-13T05:31:02;17;17;
43280;PMS5003;62175;49.416;8.690;2022-11-13T05:33:30;14;13;
43280;PMS5003;62175;49.416;8.690;2022-11-13T05:36:00;17;15;
43280;PMS5003;62175;49.416;8.690;2022-11-13T05:38:27;15;13;
43280;PMS5003;62175;49.416;8.690;2022-11-13T05:40:54;18;16;
43280;PMS5003;62175;49.416;8.690;2022-11-13T05:43:27;17;16;
43280;PMS5003;62175;49.416;8.690;2022-11-13T05:45:58;16;15;
43280;PMS5003;62175;49.416;8.690;2022-11-13T05:48:27;12;12;
43280;PMS5003;62175;49.416;8.690;2022-11-13T05:50:54;15;15;
43280;PMS5003;62175;49.416;8.690;2022-11-13T05:53:26;17;16;
43280;PMS5003;62175;49.416;8.690;2022-11-13T05:55:59;18;16;
43280;PMS5003;62175;49.416;8.690;2022-11-13T05:58:28;15;15;
43280;PMS5003;62175;49.416;8.690;2022-11-13T06:01:06;16;16;
43280;PMS5003;62175;49.416;8.690;2022-11-13T06:03:35;14;13;
43280;PMS5003;62175;49.416;8.690;2022-11-13T06:06:11;19;18;
43280;PMS5003;62175;49.416;8.690;2022-11-13T06:08:41;14;12;
43280;PMS5003;62175;49.416;8.690;2022-11-13T06:11:10;15;14;
43280;PMS5003;62175;49.416;8.690;2022-11-13T06:13:39;18;17;
43280;PMS5003;62175;49.416;8.690;2022-11-13T06:16:07;19;17;
43280;PMS5003;62175;49.416;8.690;2022-11-13T06:18:37;16;14;
43280;PMS5003;62175;49.416;8.690;2022-11-13T06:21:09;20;17;
43280;PMS5003;62175;49.416;8.690;2022-11-13T06:23:38;14;13;
43280;PMS5003;62175;49.416;8.690;2022-11-13T06:26:07;15;15;
43280;PMS5003;62175;49.416;8.690;2022-11-13T06:28:36;16;15;
43280;PMS5003;62175;49.416;8.690;2022-11-13T06:31:05;14;13;
43280;PMS5003;62175;49.416;8.690;2022-11-13T06:33:36;22;22;
43280;PMS5003;62175;49.416;8.690;2022-11-13T06:36:04;15;15;
43280;PMS5003;62175;49.416;8.690;2022-11-13T06:38:34;20;18;
43280;PMS5003;62175;49.416;8.690;2022-11-13T06:41:02;16;15;
43280;PMS5003;62175;49.416;8.690;2022-11-13T06:43:31;22;20;
43280;PMS5003;62175;49.416;8.690;2022-11-13T06:46:01;14;14;
43280;PMS5003;62175;49.416;8.690;2022-11-13T06:48:30;17;12;
43280;PMS5003;62175;49.416;8.690;2022-11-13T06:50:59;18;17;
43280;PMS5003;62175;49.416;8.690;2022-11-13T06:53:28;16;15;
43280;PMS5003;62175;49.416;8.690;2022-11-13T06:55:57;18;14;
43280;PMS5003;62175;49.416;8.690;2022-11-13T06:58:24;17;17;
43280;PMS5003;62175;49.416;8.690;2022-11-13T07:00:52;16;16;
43280;PMS5003;62175;49.416;8.690;2022-11-13T07:03:20;22;19;
43280;PMS5003;62175;49.416;8.690;2022-11-13T07:05:52;16;15;
43280;PMS5003;62175;49.416;8.690;2022-11-13T07:08:19;19;18;
43280;PMS5003;62175;49.416;8.690;2022-11-13T07:10:51;18;17;
43280;PMS5003;62175;49.416;8.690;2022-11-13T07:13:18;18;17;
43280;PMS5003;62175;49.416;8.690;2022-11-13T07:15:45;17;15;
43280;PMS5003;62175;49.416;8.690;2022-11-13T07:18:12;20;18;
43280;PMS5003;62175;49.416;8.690;2022-11-13T07:20:40;18;17;
43280;PMS5003;62175;49.416;8.690;2022-11-13T07:23:07;19;18;
43280;PMS5003;62175;49.416;8.690;2022-11-13T07:25:34;18;17;
43280;PMS5003;62175;49.416;8.690;2022-11-13T07:28:02;17;15;
43280;PMS5003;62175;49.416;8.690;2022-11-13T07:30:29;17;15;
43280;PMS5003;62175;49.416;8.690;2022-11-13T07:33:00;12;12;
43280;PMS5003;62175;49.416;8.690;2022-11-13T07:35:28;19;18;
43280;PMS5003;62175;49.416;8.690;2022-11-13T07:37:55;17;13;
43280;PMS5003;62175;49.416;8.690;2022-11-13T07:40:23;19;17;
43280;PMS5003;62175;49.416;8.690;2022-11-13T07:42:58;22;19;
43280;PMS5003;62175;49.416;8.690;2022-11-13T07:45:26;16;15;
43280;PMS5003;62175;49.416;8.690;2022-11-13T07:47:56;17;15;
43280;PMS5003;62175;49.416;8.690;2022-11-13T07:50:24;17;16;
43280;PMS5003;62175;49.416;8.690;2022-11-13T07:52:54;19;16;
43280;PMS5003;62175;49.416;8.690;2022-11-13T07:55:21;17;15;
43280;PMS5003;62175;49.416;8.690;2022-11-13T07:57:49;17;16;
43280;PMS5003;62175;49.416;8.690;2022-11-13T08:00:16;15;13;
43280;PMS5003;62175;49.416;8.690;2022-11-13T08:02:43;17;16;
43280;PMS5003;62175;49.416;8.690;2022-11-13T08:05:12;17;16;
43280;PMS5003;62175;49.416;8.690;2022-11-13T08:07:40;17;17;
43280;PMS5003;62175;49.416;8.690;2022-11-13T08:10:07;17;16;
43280;PMS5003;62175;49.416;8.690;2022-11-13T08:12:35;20;20;
43280;PMS5003;62175;49.416;8.690;2022-11-13T08:15:03;17;16;
43280;PMS5003;62175;49.416;8.690;2022-11-13T08:17:31;13;13;
43280;PMS5003;62175;49.416;8.690;2022-11-13T08:19:58;22;20;
43280;PMS5003;62175;49.416;8.690;2022-11-13T08:22:25;17;15;
43280;PMS5003;62175;49.416;8.690;2022-11-13T08:24:52;16;16;
43280;PMS5003;62175;49.416;8.690;2022-11-13T08:27:20;20;19;
43280;PMS5003;62175;49.416;8.690;2022-11-13T08:29:48;17;15;
43280;PMS5003;62175;49.416;8.690;2022-11-13T08:32:17;20;19;
43280;PMS5003;62175;49.416;8.690;2022-11-13T08:34:44;19;16;
43280;PMS5003;62175;49.416;8.690;2022-11-13T08:37:12;20;19;
43280;PMS5003;62175;49.416;8.690;2022-11-13T08:39:39;16;16;
43280;PMS5003;62175;49.416;8.690;2022-11-13T08:42:06;16;16;
43280;PMS5003;62175;49.416;8.690;2022-11-13T08:44:33;18;17;
43280;PMS5003;62175;49.416;8.690;2022-11-13T08:47:01;20;18;
43280;PMS5003;62175;49.416;8.690;2022-11-13T08:49:28;18;18;
43280;PMS5003;62175;49.416;8.690;2022-11-13T08:51:55;16;15;
43280;PMS5003;62175;49.416;8.690;2022-11-13T08:54:22;21;19;
43280;PMS5003;62175;49.416;8.690;2022-11-13T08:56:50;15;15;
43280;PMS5003;62175;49.416;8.690;2022-11-13T08:59:17;18;17;
43280;PMS5003;62175;49.416;8.690;2022-11-13T09:01:44;16;15;
43280;PMS5003;62175;49.416;8.690;2022-11-13T09:04:11;21;19;
43280;PMS5003;62175;49.416;8.690;2022-11-13T09:06:38;18;16;
43280;PMS5003;62175;49.416;8.690;2022-11-13T09:09:06;17;17;
43280;PMS5003;62175;49.416;8.690;2022-11-13T09:11:33;21;20;
43280;PMS5003;62175;49.416;8.690;2022-11-13T09:14:00;19;17;
43280;PMS5003;62175;49.416;8.690;2022-11-13T09:16:28;25;24;
43280;PMS5003;62175;49.416;8.690;2022-11-13T09:18:55;21;17;
43280;PMS5003;62175;49.416;8.690;2022-11-13T09:21:22;20;18;
43280;PMS5003;62175;49.416;8.690;2022-11-13T09:23:50;14;14;
43280;PMS5003;62175;49.416;8.690;2022-11-13T09:26:17;18;18;
43280;PMS5003;62175;49.416;8.690;2022-11-13T09:28:44;18;15;
43280;PMS5003;62175;49.416;8.690;2022-11-13T09:31:12;17;16;
43280;PMS5003;62175;49.416;8.690;2022-11-13T09:33:41;15;15;
43280;PMS5003;62175;49.416;8.690;2022-11-13T09:36:09;17;15;
43280;PMS5003;62175;49.416;8.690;2022-11-13T09:38:36;18;17;
43280;PMS5003;62175;49.416;8.690;2022-11-13T09:41:04;20;19;
43280;PMS5003;62175;49.416;8.690;2022-11-13T09:43:36;20;17;
43280;PMS5003;62175;49.416;8.690;2022-11-13T09:46:09;18;17;
43280;PMS5003;62175;49.416;8.690;2022-11-13T09:48:45;16;15;
43280;PMS5003;62175;49.416;8.690;2022-11-13T09:51:19;21;20;
43280;PMS5003;62175;49.416;8.690;2022-11-13T09:53:50;19;15;
43280;PMS5003;62175;49.416;8.690;2022-11-13T09:56:21;16;16;
43280;PMS5003;62175;49.416;8.690;2022-11-13T09:58:55;20;18;
43280;PMS5003;62175;49.416;8.690;2022-11-13T10:01:28;17;16;
43280;PMS5003;62175;49.416;8.690;2022-11-13T10:04:05;20;20;
43280;PMS5003;62175;49.416;8.690;2022-11-13T10:06:40;23;19;
43280;PMS5003;62175;49.416;8.690;2022-11-13T10:09:18;24;23;
43280;PMS5003;62175;49.416;8.690;2022-11-13T10:11:52;23;20;
43280;PMS5003;62175;49.416;8.690;2022-11-13T10:14:23;21;19;
43280;PMS5003;62175;49.416;8.690;2022-11-13T10:16:57;20;20;
43280;PMS5003;62175;49.416;8.690;2022-11-13T10:19:30;18;18;
43280;PMS5003;62175;49.416;8.690;2022-11-13T10:22:04;23;20;
43280;PMS5003;62175;49.416;8.690;2022-11-13T10:24:38;19;17;
43280;PMS5003;62175;49.416;8.690;2022-11-13T10:27:07;20;20;
43280;PMS5003;62175;49.416;8.690;2022-11-13T10:29:35;17;16;
43280;PMS5003;62175;49.416;8.690;2022-11-13T10:32:19;26;25;
43280;PMS5003;62175;49.416;8.690;2022-11-13T10:34:48;24;22;
43280;PMS5003;62175;49.416;8.690;2022-11-13T10:37:23;25;22;
43280;PMS5003;62175;49.416;8.690;2022-11-13T10:40:02;24;23;
43280;PMS5003;62175;49.416;8.690;2022-11-13T10:42:31;19;18;
43280;PMS5003;62175;49.416;8.690;2022-11-13T10:45:03;22;20;
43280;PMS5003;62175;49.416;8.690;2022-11-13T10:47:44;24;22;
43280;PMS5003;62175;49.416;8.690;2022-11-13T10:50:18;24;24;
43280;PMS5003;62175;49.416;8.690;2022-11-13T10:52:47;20;19;
43280;PMS5003;62175;49.416;8.690;2022-11-13T10:55:19;25;24;
43280;PMS5003;62175;49.416;8.690;2022-11-13T10:57:55;20;20;
43280;PMS5003;62175;49.416;8.690;2022-11-13T11:00:25;19;18;
43280;PMS5003;62175;49.416;8.690;2022-11-13T11:02:56;26;23;
43280;PMS5003;62175;49.416;8.690;2022-11-13T11:05:24;21;21;
43280;PMS5003;62175;49.416;8.690;2022-11-13T11:07:53;22;19;
43280;PMS5003;62175;49.416;8.690;2022-11-13T11:10:26;18;18;
43280;PMS5003;62175;49.416;8.690;2022-11-13T11:13:08;25;24;
43280;PMS5003;62175;49.416;8.690;2022-11-13T11:15:40;20;19;
43280;PMS5003;62175;49.416;8.690;2022-11-13T11:18:17;24;20;
43280;PMS5003;62175;49.416;8.690;2022-11-13T11:20:52;18;18;
43280;PMS5003;62175;49.416;8.690;2022-11-13T11:23:26;22;21;
43280;PMS5003;62175;49.416;8.690;2022-11-13T11:26:06;19;18;
43280;PMS5003;62175;49.416;8.690;2022-11-13T11:28:41;23;22;
43280;PMS5003;62175;49.416;8.690;2022-11-13T11:31:14;24;24;
43280;PMS5003;62175;49.416;8.690;2022-11-13T11:33:49;24;22;
43280;PMS5003;62175;49.416;8.690;2022-11-13T11:36:24;26;26;
43280;PMS5003;62175;49.416;8.690;2022-11-13T11:38:58;29;26;
43280;PMS5003;62175;49.416;8.690;2022-11-13T11:41:33;27;26;
43280;PMS5003;62175;49.416;8.690;2022-11-13T11:44:04;20;19;
43280;PMS5003;62175;49.416;8.690;2022-11-13T11:46:39;22;21;
43280;PMS5003;62175;49.416;8.690;2022-11-13T11:49:07;22;22;
43280;PMS5003;62175;49.416;8.690;2022-11-13T11:51:37;25;23;
43280;PMS5003;62175;49.416;8.690;2022-11-13T11:54:15;23;21;
43280;PMS5003;62175;49.416;8.690;2022-11-13T11:56:54;21;18;
43280;PMS5003;62175;49.416;8.690;2022-11-13T11:59:29;23;22;
43280;PMS5003;62175;49.416;8.690;2022-11-13T12:02:22;27;24;
43280;PMS5003;62175;49.416;8.690;2022-11-13T12:05:14;26;23;
43280;PMS5003;62175;49.416;8.690;2022-11-13T12:07:49;23;22;
43280;PMS5003;62175;49.416;8.690;2022-11-13T12:10:28;20;19;
43280;PMS5003;62175;49.416;8.690;2022-11-13T12:13:10;24;21;
43280;PMS5003;62175;49.416;8.690;2022-11-13T12:15:46;26;23;
43280;PMS5003;62175;49.416;8.690;2022-11-13T12:18:21;24;23;
43280;PMS5003;62175;49.416;8.690;2022-11-13T12:21:01;22;20;
43280;PMS5003;62175;49.416;8.690;2022-11-13T12:23:39;22;21;
43280;PMS5003;62175;49.416;8.690;2022-11-13T12:26:18;22;21;
43280;PMS5003;62175;49.416;8.690;2022-11-13T12:28:52;24;22;
43280;PMS5003;62175;49.416;8.690;2022-11-13T12:31:33;26;24;
43280;PMS5003;62175;49.416;8.690;2022-11-13T12:34:14;19;19;
43280;PMS5003;62175;49.416;8.690;2022-11-13T12:36:49;25;22;
43280;PMS5003;62175;49.416;8.690;2022-11-13T12:39:27;26;22;
43280;PMS5003;62175;49.416;8.690;2022-11-13T12:42:03;21;20;
43280;PMS5003;62175;49.416;8.690;2022-11-13T12:44:40;26;22;
43280;PMS5003;62175;49.416;8.690;2022-11-13T12:47:15;27;23;
43280;PMS5003;62175;49.416;8.690;2022-11-13T12:49:43;23;23;
43280;PMS5003;62175;49.416;8.690;2022-11-13T12:52:18;26;25;
43280;PMS5003;62175;49.416;8.690;2022-11-13T12:54:47;30;28;
43280;PMS5003;62175;49.416;8.690;2022-11-13T12:57:21;30;28;
43280;PMS5003;62175;49.416;8.690;2022-11-13T12:59:50;33;29;
43280;PMS5003;62175;49.416;8.690;2022-11-13T13:02:28;26;25;
43280;PMS5003;62175;49.416;8.690;2022-11-13T13:05:02;30;28;
43280;PMS5003;62175;49.416;8.690;2022-11-13T13:07:45;24;22;
43280;PMS5003;62175;49.416;8.690;2022-11-13T13:10:28;25;22;
43280;PMS5003;62175;49.416;8.690;2022-11-13T13:13:02;26;25;
43280;PMS5003;62175;49.416;8.690;2022-11-13T13:15:36;24;23;
43280;PMS5003;62175;49.416;8.690;2022-11-13T13:18:08;27;24;
43280;PMS5003;62175;49.416;8.690;2022-11-13T13:20:37;25;23;
43280;PMS5003;62175;49.416;8.690;2022-11-13T13:23:11;29;27;
43280;PMS5003;62175;49.416;8.690;2022-11-13T13:25:40;28;25;
43280;PMS5003;62175;49.416;8.690;2022-11-13T13:28:16;27;26;
43280;PMS5003;62175;49.416;8.690;2022-11-13T13:30:49;27;26;
43280;PMS5003;62175;49.416;8.690;2022-11-13T13:33:27;22;22;
43280;PMS5003;62175;49.416;8.690;2022-11-13T13:36:06;27;25;
43280;PMS5003;62175;49.416;8.690;2022-11-13T13:38:42;27;25;
43280;PMS5003;62175;49.416;8.690;2022-11-13T13:41:21;28;25;
43280;PMS5003;62175;49.416;8.690;2022-11-13T13:43:59;32;30;
43280;PMS5003;62175;49.416;8.690;2022-11-13T13:46:40;26;25;
43280;PMS5003;62175;49.416;8.690;2022-11-13T13:49:11;27;25;
43280;PMS5003;62175;49.416;8.690;2022-11-13T13:51:48;26;25;
43280;PMS5003;62175;49.416;8.690;2022-11-13T13:54:18;26;25;
43280;PMS5003;62175;49.416;8.690;2022-11-13T13:56:49;28;25;
43280;PMS5003;62175;49.416;8.690;2022-11-13T13:59:18;28;27;
43280;PMS5003;62175;49.416;8.690;2022-11-13T14:01:55;32;31;
43280;PMS5003;62175;49.416;8.690;2022-11-13T14:04:57;27;25;
43280;PMS5003;62175;49.416;8.690;2022-11-13T14:07:25;26;25;
43280;PMS5003;62175;49.416;8.690;2022-11-13T14:10:14;31;28;
43280;PMS5003;62175;49.416;8.690;2022-11-13T14:12:45;29;27;
43280;PMS5003;62175;49.416;8.690;2022-11-13T14:15:17;26;25;
43280;PMS5003;62175;49.416;8.690;2022-11-13T14:17:49;26;25;
43280;PMS5003;62175;49.416;8.690;2022-11-13T14:20:16;26;24;
43280;PMS5003;62175;49.416;8.690;2022-11-13T14:22:45;32;28;
43280;PMS5003;62175;49.416;8.690;2022-11-13T14:25:16;27;25;
43280;PMS5003;62175;49.416;8.690;2022-11-13T14:27:48;30;26;
43280;PMS5003;62175;49.416;8.690;2022-11-13T14:30:20;32;29;
43280;PMS5003;62175;49.416;8.690;2022-11-13T14:32:50;27;25;
43280;PMS5003;62175;49.416;8.690;2022-11-13T14:35:19;27;27;
43280;PMS5003;62175;49.416;8.690;2022-11-13T14:37:47;34;32;
43280;PMS5003;62175;49.416;8.690;2022-11-13T14:40:19;31;29;
43280;PMS5003;62175;49.416;8.690;2022-11-13T14:42:50;31;30;
43280;PMS5003;62175;49.416;8.690;2022-11-13T14:45:21;28;27;
43280;PMS5003;62175;49.416;8.690;2022-11-13T14:47:58;29;27;
43280;PMS5003;62175;49.416;8.690;2022-11-13T14:50:29;29;26;
43280;PMS5003;62175;49.416;8.690;2022-11-13T14:53:00;29;27;
43280;PMS5003;62175;49.416;8.690;2022-11-13T14:55:30;24;24;
43280;PMS5003;62175;49.416;8.690;2022-11-13T14:57:58;27;26;
43280;PMS5003;62175;49.416;8.690;2022-11-13T15:00:27;30;27;
43280;PMS5003;62175;49.416;8.690;2022-11-13T15:02:56;31;26;
43280;PMS5003;62175;49.416;8.690;2022-11-13T15:05:23;33;30;
43280;PMS5003;62175;49.416;8.690;2022-11-13T15:07:51;37;31;
43280;PMS5003;62175;49.416;8.690;2022-11-13T15:10:21;29;28;
43280;PMS5003;62175;49.416;8.690;2022-11-13T15:12:50;27;26;
43280;PMS5003;62175;49.416;8.690;2022-11-13T15:15:18;31;28;
43280;PMS5003;62175;49.416;8.690;2022-11-13T15:17:49;31;29;
43280;PMS5003;62175;49.416;8.690;2022-11-13T15:20:19;25;22;
43280;PMS5003;62175;49.416;8.690;2022-11-13T15:22:49;25;23;
43280;PMS5003;62175;49.416;8.690;2022-11-13T15:25:17;27;26;
43280;PMS5003;62175;49.416;8.690;2022-11-13T15:27:46;30;25;
43280;PMS5003;62175;49.416;8.690;2022-11-13T15:30:14;29;27;
43280;PMS5003;62175;49.416;8.690;2022-11-13T15:32:42;25;23;
43280;PMS5003;62175;49.416;8.690;2022-11-13T15:35:10;25;24;
43280;PMS5003;62175;49.416;8.690;2022-11-13T15:37:40;27;24;
43280;PMS5003;62175;49.416;8.690;2022-11-13T15:40:07;27;21;
43280;PMS5003;62175;49.416;8.690;2022-11-13T15:42:35;29;25;
43280;PMS5003;62175;49.416;8.690;2022-11-13T15:45:03;24;21;
43280;PMS5003;62175;49.416;8.690;2022-11-13T15:47:31;28;28;
43280;PMS5003;62175;49.416;8.690;2022-11-13T15:50:00;25;23;
43280;PMS5003;62175;49.416;8.690;2022-11-13T15:52:28;25;23;
43280;PMS5003;62175;49.416;8.690;2022-11-13T15:55:00;27;24;
43280;PMS5003;62175;49.416;8.690;2022-11-13T15:57:29;21;20;
43280;PMS5003;62175;49.416;8.690;2022-11-13T15:59:56;26;25;
43280;PMS5003;62175;49.416;8.690;2022-11-13T16:02:23;26;23;
43280;PMS5003;62175;49.416;8.690;2022-11-13T16:04:50;27;24;
43280;PMS5003;62175;49.416;8.690;2022-11-13T16:07:18;28;25;
43280;PMS5003;62175;49.416;8.690;2022-11-13T16:09:51;24;23;
43280;PMS5003;62175;49.416;8.690;2022-11-13T16:12:18;22;21;
43280;PMS5003;62175;49.416;8.690;2022-11-13T16:14:45;24;23;
43280;PMS5003;62175;49.416;8.690;2022-11-13T16:17:13;23;22;
43280;PMS5003;62175;49.416;8.690;2022-11-13T16:19:41;23;22;
43280;PMS5003;62175;49.416;8.690;2022-11-13T16:22:15;21;20;
43280;PMS5003;62175;49.416;8.690;2022-11-13T16:24:44;22;22;
43280;PMS5003;62175;49.416;8.690;2022-11-13T16:27:14;22;21;
43280;PMS5003;62175;49.416;8.690;2022-11-13T16:29:45;26;25;
43280;PMS5003;62175;49.416;8.690;2022-11-13T16:32:13;22;20;
43280;PMS5003;62175;49.416;8.690;2022-11-13T16:34:41;29;27;
43280;PMS5003;62175;49.416;8.690;2022-11-13T16:37:12;25;22;
43280;PMS5003;62175;49.416;8.690;2022-11-13T16:39:41;24;22;